Time;durP1;ratioP1;P1;durP2;ratioP2;P2;SDS_P1;SDS_P2;PMS_P1;PMS_P2;Temp;Humidity;BMP_temperature;BMP_pressure;BME280_temperature;BME280_humidity;BME280_pressure;Samples;Min_cycle;Max_cycle;Signal;HPM_P1;HPM_P2
2023/06/01 00:01:52;;;;;;;8.52;3.70;;;18.50;71.90;;;;;;6325744;28;20040;-76
2023/06/01 00:04:56;;;;;;;7.20;3.72;;;18.50;72.20;;;;;;6324725;28;20044;-74
2023/06/01 00:07:58;;;;;;;7.53;3.72;;;18.40;72.20;;;;;;6324704;28;20044;-74
2023/06/01 00:11:00;;;;;;;7.72;3.78;;;18.30;72.90;;;;;;6324150;28;20070;-73
2023/06/01 00:14:02;;;;;;;6.18;3.78;;;18.30;72.60;;;;;;6324533;28;20044;-75
2023/06/01 00:17:05;;;;;;;8.23;3.88;;;18.40;72.80;;;;;;6323950;28;20048;-73
2023/06/01 00:20:10;;;;;;;7.35;3.75;;;18.40;72.70;;;;;;6324064;28;20055;-73
2023/06/01 00:23:12;;;;;;;7.72;3.78;;;18.30;72.90;;;;;;6323907;28;20086;-74
2023/06/01 00:26:14;;;;;;;6.18;3.65;;;18.20;73.20;;;;;;6324071;28;20067;-75
2023/06/01 00:29:16;;;;;;;7.38;3.90;;;18.10;73.60;;;;;;6324096;28;20485;-74
2023/06/01 00:32:18;;;;;;;7.95;3.60;;;18.00;74.00;;;;;;6323654;28;20048;-74
2023/06/01 00:35:21;;;;;;;7.32;3.67;;;18.00;74.60;;;;;;6323432;28;20493;-74
2023/06/01 00:38:23;;;;;;;5.50;3.55;;;18.00;73.90;;;;;;6324348;28;20054;-75
2023/06/01 00:41:25;;;;;;;5.90;3.30;;;17.90;74.20;;;;;;6325121;28;20500;-74
2023/06/01 00:44:27;;;;;;;10.20;3.95;;;17.90;74.10;;;;;;6324734;28;20055;-74
2023/06/01 00:47:29;;;;;;;5.88;3.38;;;17.90;74.10;;;;;;6325264;28;20059;-75
2023/06/01 00:50:32;;;;;;;6.63;3.90;;;18.00;74.00;;;;;;6323130;28;20048;-75
2023/06/01 00:53:35;;;;;;;5.72;3.88;;;17.90;74.50;;;;;;6323816;28;20409;-75
2023/06/01 00:56:37;;;;;;;6.65;3.53;;;17.80;74.60;;;;;;6323555;28;20056;-75
2023/06/01 00:59:39;;;;;;;6.68;3.65;;;17.80;74.70;;;;;;6323567;28;20048;-75
2023/06/01 01:02:44;;;;;;;6.63;3.72;;;17.80;74.60;;;;;;6323152;28;20539;-75
2023/06/01 01:05:47;;;;;;;7.97;3.80;;;17.70;75.10;;;;;;6323037;28;20052;-75
2023/06/01 01:09:07;;;;;;;6.65;3.50;;;17.70;75.20;;;;;;6323312;28;20103;-75
2023/06/01 01:12:22;;;;;;;8.30;3.80;;;17.60;75.10;;;;;;6323238;28;20044;-74
2023/06/01 01:15:30;;;;;;;5.85;3.30;;;17.50;75.20;;;;;;6322699;28;20051;-75
2023/06/01 01:18:42;;;;;;;8.43;4.18;;;17.40;75.40;;;;;;6322982;28;20048;-75
2023/06/01 01:22:00;;;;;;;6.68;3.60;;;17.20;76.20;;;;;;6323342;28;20075;-76
2023/06/01 01:25:21;;;;;;;6.55;3.60;;;17.10;76.60;;;;;;6323337;28;20044;-75
2023/06/01 01:28:46;;;;;;;8.15;4.22;;;17.20;76.80;;;;;;6324276;28;20547;-76
2023/06/01 01:31:51;;;;;;;8.32;4.10;;;16.90;76.40;;;;;;6326791;28;20054;-75
2023/06/01 01:34:54;;;;;;;6.68;3.78;;;16.80;77.10;;;;;;6324491;28;20055;-75
2023/06/01 01:37:56;;;;;;;9.25;3.97;;;16.60;77.70;;;;;;6322722;28;20089;-77
2023/06/01 01:40:58;;;;;;;7.47;3.85;;;16.50;78.40;;;;;;6322798;28;20051;-75
2023/06/01 01:44:02;;;;;;;8.63;4.03;;;16.50;78.50;;;;;;6322481;28;20044;-75
2023/06/01 01:47:09;;;;;;;;;;;16.60;78.90;;;;;;6322391;28;20505;-74
2023/06/01 01:50:15;;;;;;;8.07;4.15;;;16.60;78.40;;;;;;6322104;28;19920;-75
2023/06/01 01:53:20;;;;;;;8.15;4.13;;;16.60;78.80;;;;;;6320961;28;20050;-74
2023/06/01 01:56:23;;;;;;;7.85;4.28;;;16.70;78.60;;;;;;6322754;28;20048;-76
2023/06/01 01:59:27;;;;;;;7.22;3.88;;;16.70;78.60;;;;;;6323398;28;20052;-76
2023/06/01 02:02:30;;;;;;;9.38;4.00;;;16.70;78.80;;;;;;6322412;28;20041;-75
2023/06/01 02:05:32;;;;;;;9.60;4.20;;;16.70;78.90;;;;;;6321837;28;20489;-75
2023/06/01 02:08:34;;;;;;;6.88;3.63;;;16.70;78.90;;;;;;6322311;28;20051;-75
2023/06/01 02:11:36;;;;;;;7.43;4.13;;;16.70;79.00;;;;;;6321746;28;20126;-75
2023/06/01 02:14:39;;;;;;;8.52;4.22;;;16.70;79.00;;;;;;6321691;28;20405;-75
2023/06/01 02:17:42;;;;;;;6.50;3.45;;;16.60;79.00;;;;;;6322023;28;20048;-74
2023/06/01 02:20:45;;;;;;;7.57;3.60;;;16.60;79.10;;;;;;6321898;28;20058;-74
2023/06/01 02:23:47;;;;;;;7.97;4.03;;;16.60;79.30;;;;;;6321972;28;20052;-75
2023/06/01 02:26:51;;;;;;;8.48;4.03;;;16.50;79.10;;;;;;6321795;28;20052;-75
2023/06/01 02:29:55;;;;;;;8.60;3.85;;;16.30;79.40;;;;;;6321824;28;20050;-75
2023/06/01 02:32:56;;;;;;;7.55;3.92;;;16.20;80.00;;;;;;6321407;28;20409;-75
2023/06/01 02:35:58;;;;;;;10.27;3.80;;;16.10;80.60;;;;;;6321480;28;20040;-74
2023/06/01 02:39:00;;;;;;;7.40;4.30;;;16.00;80.90;;;;;;6321321;28;20044;-73
2023/06/01 02:42:02;;;;;;;6.60;3.88;;;15.90;81.00;;;;;;6321522;28;20040;-75
2023/06/01 02:45:07;;;;;;;7.28;3.50;;;15.80;81.60;;;;;;6321366;28;20178;-75
2023/06/01 02:48:09;;;;;;;6.90;3.83;;;15.80;82.30;;;;;;6321478;28;20059;-75
2023/06/01 02:51:11;;;;;;;6.53;3.90;;;15.80;82.40;;;;;;6321150;28;20182;-74
2023/06/01 02:54:13;;;;;;;8.00;4.10;;;15.80;82.10;;;;;;6321332;28;20048;-74
2023/06/01 02:57:15;;;;;;;7.50;3.85;;;15.70;82.30;;;;;;6321177;28;20055;-74
2023/06/01 03:00:18;;;;;;;8.90;4.40;;;15.60;82.50;;;;;;6321114;28;20048;-74
2023/06/01 03:03:21;;;;;;;7.22;4.05;;;15.50;83.10;;;;;;6321325;28;20052;-74
2023/06/01 03:06:23;;;;;;;10.38;4.68;;;15.50;83.60;;;;;;6321454;28;20048;-76
2023/06/01 03:09:25;;;;;;;9.95;4.50;;;15.50;84.10;;;;;;6321207;28;20048;-73
2023/06/01 03:12:27;;;;;;;7.30;3.90;;;15.50;84.20;;;;;;6322385;28;20398;-76
2023/06/01 03:15:30;;;;;;;8.50;4.47;;;15.50;83.90;;;;;;6325674;28;20052;-76
2023/06/01 03:18:32;;;;;;;7.85;4.25;;;15.60;83.60;;;;;;6325417;28;20055;-76
2023/06/01 03:21:34;;;;;;;7.25;4.10;;;15.60;83.40;;;;;;6325570;28;20058;-74
2023/06/01 03:24:36;;;;;;;6.53;3.70;;;15.60;84.00;;;;;;6325145;28;20063;-74
2023/06/01 03:27:38;;;;;;;7.47;4.50;;;15.60;83.60;;;;;;6325156;28;20074;-74
2023/06/01 03:30:42;;;;;;;7.70;4.07;;;15.50;83.40;;;;;;6325117;28;20489;-75
2023/06/01 03:33:44;;;;;;;;;;;15.40;83.90;;;;;;6325471;28;20394;-74
2023/06/01 03:36:47;;;;;;;8.25;4.55;;;15.30;84.40;;;;;;6325288;28;19963;-73
2023/06/01 03:39:49;;;;;;;;;;;15.30;84.80;;;;;;6325793;28;20575;-74
2023/06/01 03:42:51;;;;;;;9.95;4.65;;;15.30;85.10;;;;;;6325506;28;19920;-76
2023/06/01 03:45:56;;;;;;;9.05;4.47;;;15.30;85.40;;;;;;6324645;28;20371;-73
2023/06/01 03:48:58;;;;;;;10.77;4.60;;;15.30;85.80;;;;;;6324538;28;20059;-74
2023/06/01 03:52:00;;;;;;;7.78;4.82;;;15.20;86.20;;;;;;6324538;28;20048;-75
2023/06/01 03:55:08;;;;;;;7.85;4.90;;;15.20;86.60;;;;;;6324828;28;20055;-74
2023/06/01 03:58:10;;;;;;;8.38;4.50;;;15.30;86.70;;;;;;6324639;28;20059;-74
2023/06/01 04:01:16;;;;;;;9.63;4.55;;;15.30;86.80;;;;;;6324558;28;20044;-73
2023/06/01 04:04:22;;;;;;;9.70;4.57;;;15.30;86.40;;;;;;6324520;28;20135;-74
2023/06/01 04:07:24;;;;;;;7.80;4.35;;;15.30;86.50;;;;;;6324301;28;20405;-74
2023/06/01 04:10:26;;;;;;;8.65;4.07;;;15.30;86.60;;;;;;6324282;28;20426;-75
2023/06/01 04:13:28;;;;;;;7.75;4.20;;;15.40;86.60;;;;;;6324494;28;20063;-75
2023/06/01 04:16:31;;;;;;;6.15;3.90;;;15.50;86.80;;;;;;6324314;28;20048;-74
2023/06/01 04:19:33;;;;;;;8.85;4.50;;;15.50;87.00;;;;;;6324159;28;20048;-75
2023/06/01 04:22:35;;;;;;;6.88;4.18;;;15.50;86.90;;;;;;6324190;28;20057;-75
2023/06/01 04:25:38;;;;;;;7.55;4.35;;;15.50;87.90;;;;;;6323731;28;20048;-75
2023/06/01 04:28:43;;;;;;;9.38;4.70;;;15.60;87.40;;;;;;6324146;28;20182;-76
2023/06/01 04:31:46;;;;;;;8.27;4.07;;;15.60;87.60;;;;;;6323670;28;20185;-75
2023/06/01 04:34:49;;;;;;;9.20;4.57;;;15.60;87.40;;;;;;6323688;28;20055;-75
2023/06/01 04:37:51;;;;;;;7.38;4.40;;;15.60;87.70;;;;;;6323455;28;20052;-75
2023/06/01 04:40:54;;;;;;;6.97;4.28;;;15.60;88.00;;;;;;6323459;28;20398;-73
2023/06/01 04:43:58;;;;;;;10.37;4.47;;;15.60;88.20;;;;;;6324381;28;20048;-74
2023/06/01 04:47:03;;;;;;;8.00;4.10;;;15.60;88.50;;;;;;6342322;28;20866;-75
2023/06/01 04:50:08;;;;;;;7.75;4.57;;;15.70;88.70;;;;;;6345485;28;20043;-74
2023/06/01 04:53:10;;;;;;;8.23;4.55;;;15.60;88.90;;;;;;6351159;28;20048;-75
2023/06/01 04:56:12;;;;;;;8.38;4.60;;;15.60;89.30;;;;;;6344886;28;20070;-75
2023/06/01 04:59:15;;;;;;;8.70;4.45;;;15.60;89.70;;;;;;6332541;28;20059;-74
2023/06/01 05:02:18;;;;;;;9.35;4.75;;;15.60;89.70;;;;;;6329598;28;20055;-74
2023/06/01 05:05:20;;;;;;;8.02;4.47;;;15.60;89.70;;;;;;6326703;28;20044;-76
2023/06/01 05:08:22;;;;;;;8.27;4.70;;;15.70;90.00;;;;;;6327823;28;20332;-75
2023/06/01 05:11:24;;;;;;;8.30;4.78;;;15.70;90.20;;;;;;6329473;28;20044;-74
2023/06/01 05:14:26;;;;;;;10.75;4.90;;;15.70;90.60;;;;;;6326110;28;20059;-72
2023/06/01 05:17:29;;;;;;;8.60;4.95;;;15.70;91.00;;;;;;6325611;28;20493;-72
2023/06/01 05:20:31;;;;;;;8.52;5.03;;;15.70;91.10;;;;;;6323430;28;20058;-75
2023/06/01 05:23:33;;;;;;;8.38;4.93;;;15.70;90.50;;;;;;6322890;28;20482;-74
2023/06/01 05:26:35;;;;;;;7.97;4.60;;;15.70;90.40;;;;;;6322721;28;20051;-75
2023/06/01 05:29:37;;;;;;;9.30;5.05;;;15.70;90.70;;;;;;6322462;28;20502;-74
2023/06/01 05:32:41;;;;;;;9.63;5.32;;;15.80;90.70;;;;;;6297702;28;20481;-74
2023/06/01 05:35:42;;;;;;;8.80;5.15;;;15.90;90.50;;;;;;6296781;28;20051;-75
2023/06/01 05:38:44;;;;;;;9.50;5.18;;;16.00;90.80;;;;;;6297087;28;20059;-75
2023/06/01 05:41:46;;;;;;;10.90;5.28;;;16.00;90.70;;;;;;6296082;28;20174;-75
2023/06/01 05:44:48;;;;;;;9.75;6.03;;;16.00;90.90;;;;;;6297047;28;20580;-76
2023/06/01 05:47:51;;;;;;;9.30;5.75;;;16.10;90.90;;;;;;6297015;28;20054;-74
2023/06/01 05:50:53;;;;;;;12.57;5.90;;;16.00;91.10;;;;;;6296948;28;20055;-76
2023/06/01 05:53:55;;;;;;;9.60;5.75;;;16.10;91.30;;;;;;6297030;28;20048;-74
2023/06/01 05:56:57;;;;;;;11.75;5.80;;;16.20;91.80;;;;;;6296852;28;20486;-74
2023/06/01 05:59:58;;;;;;;10.95;5.82;;;16.20;92.00;;;;;;6297232;28;20055;-74
2023/06/01 06:03:02;;;;;;;9.68;5.60;;;16.30;92.30;;;;;;6296861;28;20044;-73
2023/06/01 06:06:04;;;;;;;11.35;5.97;;;16.30;92.20;;;;;;6297389;28;20123;-73
2023/06/01 06:09:06;;;;;;;10.95;5.85;;;16.40;92.40;;;;;;6297092;28;20122;-75
2023/06/01 06:12:09;;;;;;;10.13;5.85;;;16.50;92.20;;;;;;6297260;28;20055;-77
2023/06/01 06:15:11;;;;;;;9.93;5.25;;;16.50;92.20;;;;;;6297385;28;20044;-74
2023/06/01 06:18:15;;;;;;;10.18;6.07;;;16.50;91.30;;;;;;6297345;28;20056;-76
2023/06/01 06:21:17;;;;;;;10.63;5.40;;;16.50;91.10;;;;;;6299459;28;20041;-76
2023/06/01 06:24:18;;;;;;;10.02;5.60;;;16.50;90.20;;;;;;6302293;28;20084;-74
2023/06/01 06:27:20;;;;;;;8.95;5.38;;;16.60;88.40;;;;;;6299593;28;20490;-74
2023/06/01 06:30:24;;;;;;;9.68;5.07;;;16.60;88.70;;;;;;6297835;28;20052;-74
2023/06/01 06:33:28;;;;;;;9.55;5.10;;;16.70;87.60;;;;;;6296717;28;20055;-74
2023/06/01 06:36:30;;;;;;;;;;;16.70;86.70;;;;;;6297032;28;20425;-74
2023/06/01 06:39:32;;;;;;;7.30;4.28;;;16.80;86.90;;;;;;6296428;28;19967;-73
2023/06/01 06:42:34;;;;;;;9.02;4.68;;;16.90;85.80;;;;;;6296066;28;20423;-74
2023/06/01 06:45:36;;;;;;;8.85;4.63;;;17.00;85.30;;;;;;6296349;28;20506;-74
2023/06/01 06:48:39;;;;;;;8.65;4.72;;;17.10;85.40;;;;;;6314999;28;20053;-75
2023/06/01 06:51:41;;;;;;;9.70;4.80;;;17.20;84.80;;;;;;6300588;28;20049;-74
2023/06/01 06:54:44;;;;;;;9.30;4.50;;;17.10;82.50;;;;;;6300876;28;20052;-75
2023/06/01 06:57:46;;;;;;;8.80;4.77;;;17.30;83.50;;;;;;6300577;28;20398;-74
2023/06/01 07:00:48;;;;;;;11.95;4.80;;;17.30;83.70;;;;;;6300612;28;20091;-74
2023/06/01 07:03:52;;;;;;;10.18;4.47;;;17.40;83.00;;;;;;6300556;28;20402;-74
2023/06/01 07:06:54;;;;;;;9.43;4.70;;;17.50;82.10;;;;;;6300698;28;20093;-74
2023/06/01 07:09:56;;;;;;;8.20;4.13;;;17.50;82.20;;;;;;6300439;28;20178;-75
2023/06/01 07:12:58;;;;;;;8.07;4.28;;;17.60;80.70;;;;;;6300241;28;20482;-74
2023/06/01 07:16:00;;;;;;;10.18;4.55;;;17.60;80.50;;;;;;6300668;28;20059;-75
2023/06/01 07:19:03;;;;;;;7.05;3.95;;;17.70;79.80;;;;;;6300755;28;20053;-75
2023/06/01 07:22:06;;;;;;;9.65;4.75;;;17.70;78.80;;;;;;6300431;28;20044;-74
2023/06/01 07:25:12;;;;;;;10.63;4.43;;;17.80;79.10;;;;;;6300598;28;20040;-74
2023/06/01 07:28:15;;;;;;;9.77;4.15;;;17.90;77.30;;;;;;6300380;28;20041;-74
2023/06/01 07:31:17;;;;;;;8.02;4.35;;;18.00;79.30;;;;;;6299998;28;20475;-74
2023/06/01 07:34:21;;;;;;;8.07;4.13;;;18.10;78.20;;;;;;6300221;28;20048;-75
2023/06/01 07:37:23;;;;;;;9.15;4.57;;;18.30;77.60;;;;;;6299910;28;20060;-75
2023/06/01 07:40:25;;;;;;;8.32;4.65;;;18.40;77.50;;;;;;6300063;28;20048;-75
2023/06/01 07:43:27;;;;;;;10.13;4.80;;;18.40;77.40;;;;;;6299873;28;20045;-75
2023/06/01 07:46:29;;;;;;;9.75;4.57;;;18.40;75.80;;;;;;6300171;28;20047;-74
2023/06/01 07:49:35;;;;;;;8.25;4.57;;;18.50;76.40;;;;;;6299572;28;20056;-74
2023/06/01 07:52:38;;;;;;;6.85;3.95;;;18.50;76.10;;;;;;6299834;28;20049;-75
2023/06/01 07:55:40;;;;;;;9.38;4.43;;;18.50;76.10;;;;;;6299311;28;20048;-74
2023/06/01 07:58:44;;;;;;;9.27;4.45;;;18.60;75.70;;;;;;6299181;28;20131;-74
2023/06/01 08:01:46;;;;;;;11.45;4.40;;;18.70;75.60;;;;;;6299352;28;20520;-75
2023/06/01 08:04:49;;;;;;;9.75;4.95;;;18.70;76.10;;;;;;6299403;28;20501;-74
2023/06/01 08:07:51;;;;;;;8.43;4.43;;;18.80;74.70;;;;;;6299585;28;20049;-74
2023/06/01 08:10:52;;;;;;;9.40;4.32;;;18.80;74.60;;;;;;6299204;28;20052;-74
2023/06/01 08:13:54;;;;;;;11.98;4.72;;;19.00;74.70;;;;;;6299336;28;20045;-73
2023/06/01 08:16:56;;;;;;;12.20;4.85;;;19.00;74.90;;;;;;6299102;28;20082;-75
2023/06/01 08:19:59;;;;;;;7.78;4.35;;;19.00;74.90;;;;;;6299042;28;20044;-74
2023/06/01 08:23:02;;;;;;;12.50;4.97;;;19.20;73.90;;;;;;6298849;28;20045;-74
2023/06/01 08:26:04;;;;;;;8.57;4.83;;;19.20;74.70;;;;;;6299350;28;20048;-73
2023/06/01 08:29:06;;;;;;;13.32;4.30;;;19.30;75.20;;;;;;6298761;28;20306;-74
2023/06/01 08:32:09;;;;;;;9.05;4.32;;;19.30;75.50;;;;;;6298959;28;20041;-77
2023/06/01 08:35:13;;;;;;;9.67;4.57;;;19.40;75.20;;;;;;6298407;28;20110;-75
2023/06/01 08:38:15;;;;;;;11.25;4.55;;;19.50;74.70;;;;;;6298726;28;20317;-75
2023/06/01 08:41:25;;;;;;;10.27;4.60;;;19.60;74.30;;;;;;6298420;28;20487;-75
2023/06/01 08:44:28;;;;;;;9.57;4.78;;;19.70;75.20;;;;;;6298677;28;20049;-76
2023/06/01 08:47:32;;;;;;;9.90;5.25;;;19.80;73.70;;;;;;6298010;28;20137;-74
2023/06/01 08:50:36;;;;;;;9.68;5.05;;;19.90;74.40;;;;;;6298343;28;20045;-74
2023/06/01 08:53:42;;;;;;;8.55;4.28;;;19.90;74.40;;;;;;6298572;28;20044;-73
2023/06/01 08:56:44;;;;;;;7.75;4.22;;;20.10;74.50;;;;;;6298538;28;20127;-74
2023/06/01 08:59:47;;;;;;;10.65;4.57;;;20.10;73.80;;;;;;6298109;28;20045;-76
2023/06/01 09:02:49;;;;;;;8.07;4.22;;;20.20;74.50;;;;;;6297831;28;20071;-75
2023/06/01 09:05:52;;;;;;;9.57;4.73;;;20.30;74.20;;;;;;6298219;28;20532;-73
2023/06/01 09:08:54;;;;;;;7.30;4.18;;;20.50;74.10;;;;;;6297915;28;20045;-75
2023/06/01 09:12:21;;;;;;;13.20;5.10;;;20.60;72.70;;;;;;6297361;28;20051;-74
2023/06/01 09:15:25;;;;;;;10.40;5.10;;;20.60;72.30;;;;;;6292606;28;20048;-74
2023/06/01 09:18:27;;;;;;;8.45;4.82;;;20.70;72.30;;;;;;6297607;28;20524;-76
2023/06/01 09:21:31;;;;;;;11.48;5.18;;;20.70;72.80;;;;;;6297210;28;20061;-74
2023/06/01 09:24:32;;;;;;;11.40;5.40;;;20.90;73.60;;;;;;6297867;28;20498;-75
2023/06/01 09:27:46;;;;;;;9.02;4.40;;;20.90;73.20;;;;;;6297436;28;20052;-75
2023/06/01 09:30:47;;;;;;;;;;;21.00;73.00;;;;;;6298017;28;20052;-73
2023/06/01 09:34:01;;;;;;;9.15;4.85;;;21.10;73.20;;;;;;6297474;28;19924;-75
2023/06/01 09:37:07;;;;;;;8.27;4.38;;;21.20;71.70;;;;;;6297169;28;20485;-74
2023/06/01 09:40:20;;;;;;;11.75;4.60;;;21.10;71.60;;;;;;6297084;28;20057;-73
2023/06/01 09:43:22;;;;;;;9.43;4.38;;;21.20;72.20;;;;;;6297323;28;20060;-76
2023/06/01 09:46:24;;;;;;;12.20;5.32;;;21.30;72.00;;;;;;6297048;28;20041;-73
2023/06/01 09:49:30;;;;;;;7.25;4.40;;;21.40;71.20;;;;;;6296781;28;20058;-75
2023/06/01 09:52:33;;;;;;;12.65;5.00;;;21.50;72.70;;;;;;6297007;28;20044;-75
2023/06/01 09:55:35;;;;;;;9.57;4.85;;;21.50;70.50;;;;;;6297154;28;20040;-75
2023/06/01 09:58:40;;;;;;;9.00;4.55;;;21.60;71.60;;;;;;6296951;28;20048;-75
2023/06/01 10:01:45;;;;;;;8.98;4.85;;;21.70;71.20;;;;;;6296971;28;20137;-74
2023/06/01 10:04:50;;;;;;;7.80;4.47;;;21.80;71.30;;;;;;6296859;28;20060;-74
2023/06/01 10:07:53;;;;;;;9.60;4.80;;;21.90;71.10;;;;;;6297215;28;20133;-74
2023/06/01 10:10:55;;;;;;;11.30;4.85;;;22.10;71.20;;;;;;6296692;28;20045;-74
2023/06/01 10:13:58;;;;;;;10.32;6.03;;;22.10;69.90;;;;;;6297001;28;20052;-75
2023/06/01 10:17:00;;;;;;;18.52;8.60;;;22.20;69.60;;;;;;6296712;28;20048;-75
2023/06/01 10:20:03;;;;;;;11.00;5.93;;;22.20;69.70;;;;;;6296554;28;20053;-74
2023/06/01 10:23:07;;;;;;;9.80;4.63;;;22.30;67.70;;;;;;6300998;28;20497;-73
2023/06/01 10:26:15;;;;;;;8.43;4.40;;;22.30;67.50;;;;;;6301690;28;20052;-73
2023/06/01 10:29:19;;;;;;;10.68;5.07;;;22.40;69.50;;;;;;6301760;28;20049;-74
2023/06/01 10:32:44;;;;;;;8.93;4.40;;;22.50;68.30;;;;;;6301724;28;20044;-74
2023/06/01 10:35:55;;;;;;;9.23;4.80;;;22.60;68.80;;;;;;6301539;28;20056;-74
2023/06/01 10:39:26;;;;;;;8.65;4.40;;;22.70;67.50;;;;;;6301727;28;20044;-73
2023/06/01 10:42:40;;;;;;;11.35;4.82;;;22.80;68.10;;;;;;6301437;28;20049;-75
2023/06/01 10:45:42;;;;;;;10.15;4.15;;;22.90;66.80;;;;;;6301291;28;20060;-73
2023/06/01 10:48:55;;;;;;;10.77;4.95;;;22.90;65.70;;;;;;6300881;28;20067;-73
2023/06/01 10:52:27;;;;;;;7.72;4.38;;;22.90;65.00;;;;;;6301243;28;20052;-74
2023/06/01 10:55:31;;;;;;;;;;;23.00;65.00;;;;;;6301273;28;20044;-72
2023/06/01 10:58:33;;;;;;;7.32;4.47;;;23.00;64.40;;;;;;6300904;28;19935;-73
2023/06/01 11:01:36;;;;;;;9.63;4.47;;;23.20;64.10;;;;;;6300704;28;20051;-73
2023/06/01 11:04:38;;;;;;;9.25;5.20;;;23.20;64.20;;;;;;6300797;28;20048;-75
2023/06/01 11:07:40;;;;;;;8.43;4.43;;;23.30;64.70;;;;;;6300780;28;20045;-73
2023/06/01 11:11:03;;;;;;;9.98;4.60;;;23.40;63.70;;;;;;6300704;28;20056;-75
2023/06/01 11:14:14;;;;;;;6.60;4.20;;;23.40;62.70;;;;;;6300931;28;20374;-74
2023/06/01 11:17:30;;;;;;;7.78;4.07;;;23.50;63.40;;;;;;6300839;28;20055;-76
2023/06/01 11:20:40;;;;;;;7.65;4.30;;;23.60;59.90;;;;;;6310513;28;20049;-74
2023/06/01 11:23:42;;;;;;;7.82;4.47;;;23.60;61.40;;;;;;6325434;28;20090;-76
2023/06/01 11:26:47;;;;;;;8.53;4.30;;;23.60;61.30;;;;;;6320250;28;20049;-76
2023/06/01 11:29:49;;;;;;;7.95;4.25;;;23.60;59.40;;;;;;6311925;28;20314;-75
2023/06/01 11:32:55;;;;;;;9.10;4.43;;;23.70;59.70;;;;;;6314760;28;20166;-74
2023/06/01 11:35:59;;;;;;;9.65;4.28;;;23.70;58.70;;;;;;6300154;28;20056;-74
2023/06/01 11:39:01;;;;;;;7.30;4.30;;;23.80;58.10;;;;;;6299814;28;20063;-74
2023/06/01 11:42:10;;;;;;;7.13;4.15;;;24.00;60.40;;;;;;6300113;28;20044;-75
2023/06/01 11:45:17;;;;;;;6.57;4.10;;;24.20;59.60;;;;;;6299780;28;20391;-74
2023/06/01 11:48:19;;;;;;;10.15;4.22;;;24.20;58.40;;;;;;6299843;28;20056;-74
2023/06/01 11:51:21;;;;;;;8.32;4.38;;;24.40;58.70;;;;;;6299640;28;20049;-75
2023/06/01 11:54:26;;;;;;;7.85;4.30;;;24.50;56.30;;;;;;6299883;28;20056;-72
2023/06/01 11:57:29;;;;;;;6.38;3.88;;;24.60;57.50;;;;;;6299667;28;20148;-74
2023/06/01 12:00:31;;;;;;;;;;;24.60;54.80;;;;;;6299732;28;20490;-74
2023/06/01 12:03:33;;;;;;;7.25;3.92;;;24.70;55.00;;;;;;6299566;28;19929;-74
2023/06/01 12:06:35;;;;;;;8.75;4.10;;;24.80;55.20;;;;;;6299239;28;20513;-74
2023/06/01 12:09:38;;;;;;;6.60;3.60;;;25.00;53.90;;;;;;6299340;28;20171;-74
2023/06/01 12:12:43;;;;;;;6.95;4.03;;;25.00;54.60;;;;;;6299606;28;20045;-72
2023/06/01 12:15:46;;;;;;;10.50;4.60;;;25.10;53.90;;;;;;6299000;28;20138;-73
2023/06/01 12:18:48;;;;;;;8.57;4.50;;;25.10;54.70;;;;;;6298832;28;20041;-74
2023/06/01 12:21:51;;;;;;;9.45;3.78;;;25.20;56.90;;;;;;6298690;28;20143;-73
2023/06/01 12:24:53;;;;;;;9.15;4.55;;;25.40;57.30;;;;;;6298696;28;20055;-73
2023/06/01 12:28:04;;;;;;;8.05;4.32;;;25.50;57.30;;;;;;6298817;28;20048;-74
2023/06/01 12:31:12;;;;;;;6.15;3.97;;;25.60;57.20;;;;;;6298714;28;20088;-75
2023/06/01 12:34:18;;;;;;;6.63;4.25;;;25.70;55.60;;;;;;6298608;28;20052;-73
2023/06/01 12:37:21;;;;;;;10.20;5.00;;;25.90;55.50;;;;;;6298445;28;20402;-74
2023/06/01 12:40:23;;;;;;;;;;;25.90;55.20;;;;;;6298950;28;20044;-74
2023/06/01 12:43:27;;;;;;;7.28;4.05;;;26.10;55.30;;;;;;6298344;28;19928;-72
2023/06/01 12:46:32;;;;;;;7.60;5.05;;;26.30;55.40;;;;;;6298344;28;20040;-73
2023/06/01 12:49:34;;;;;;;7.65;4.90;;;26.50;55.60;;;;;;6297799;28;20067;-75
2023/06/01 12:52:36;;;;;;;7.55;4.47;;;26.60;56.10;;;;;;6298341;28;20051;-76
2023/06/01 12:55:37;;;;;;;11.55;4.28;;;26.80;54.30;;;;;;6297815;28;20055;-73
2023/06/01 12:58:41;;;;;;;8.32;3.88;;;26.80;52.70;;;;;;6297938;28;20486;-75
2023/06/01 13:01:43;;;;;;;6.57;4.07;;;27.00;52.60;;;;;;6297831;28;20501;-75
2023/06/01 13:04:45;;;;;;;7.00;4.30;;;27.20;52.40;;;;;;6298086;28;20041;-73
2023/06/01 13:07:48;;;;;;;8.45;4.18;;;27.30;52.40;;;;;;6297740;28;20122;-74
2023/06/01 13:10:50;;;;;;;7.10;4.40;;;27.50;52.00;;;;;;6297535;28;20056;-74
2023/06/01 13:13:55;;;;;;;9.32;4.50;;;27.60;50.60;;;;;;6297601;28;20040;-75
2023/06/01 13:16:56;;;;;;;7.72;4.22;;;27.60;49.80;;;;;;6297395;28;20490;-73
2023/06/01 13:19:58;;;;;;;7.35;4.40;;;27.70;51.70;;;;;;6297475;28;20060;-73
2023/06/01 13:23:00;;;;;;;7.93;4.30;;;27.70;52.00;;;;;;6297097;28;20478;-74
2023/06/01 13:26:02;;;;;;;7.30;4.22;;;27.70;51.10;;;;;;6297405;28;20048;-73
2023/06/01 13:29:06;;;;;;;8.25;4.65;;;27.80;51.80;;;;;;6297215;28;20061;-76
2023/06/01 13:32:09;;;;;;;7.55;4.13;;;27.90;50.70;;;;;;6297268;28;20110;-74
2023/06/01 13:35:11;;;;;;;10.73;4.45;;;28.10;51.50;;;;;;6297369;28;20056;-72
2023/06/01 13:38:13;;;;;;;6.70;4.00;;;28.20;51.30;;;;;;6297271;28;20513;-74
2023/06/01 13:41:15;;;;;;;7.45;4.80;;;28.20;51.40;;;;;;6297110;28;20162;-75
2023/06/01 13:44:19;;;;;;;8.57;4.47;;;28.20;51.00;;;;;;6297578;28;20123;-75
2023/06/01 13:47:21;;;;;;;6.70;3.92;;;28.20;50.60;;;;;;6297084;28;20059;-72
2023/06/01 13:50:23;;;;;;;7.88;4.53;;;28.30;50.00;;;;;;6297114;28;20044;-74
2023/06/01 13:53:25;;;;;;;8.20;4.22;;;28.40;50.70;;;;;;6297629;28;20067;-75
2023/06/01 13:56:27;;;;;;;8.98;4.25;;;28.50;50.30;;;;;;6296797;28;20402;-74
2023/06/01 13:59:34;;;;;;;8.45;4.47;;;28.70;49.80;;;;;;6298181;28;20044;-73
2023/06/01 14:02:36;;;;;;;9.65;4.10;;;28.70;50.50;;;;;;6301819;28;20600;-73
2023/06/01 14:05:38;;;;;;;8.33;4.07;;;28.90;50.40;;;;;;6296867;28;20387;-74
2023/06/01 14:08:39;;;;;;;7.80;4.28;;;29.20;51.10;;;;;;6297006;28;20363;-75
2023/06/01 14:11:41;;;;;;;7.85;4.10;;;29.20;50.90;;;;;;6297169;28;20131;-75
2023/06/01 14:14:45;;;;;;;7.75;4.05;;;29.00;50.60;;;;;;6297016;28;20040;-74
2023/06/01 14:17:46;;;;;;;6.93;3.85;;;28.90;49.90;;;;;;6296980;28;20049;-73
2023/06/01 14:20:48;;;;;;;7.55;4.40;;;28.80;50.50;;;;;;6296597;28;20056;-74
2023/06/01 14:23:50;;;;;;;8.03;4.10;;;28.70;51.40;;;;;;6296877;28;20054;-73
2023/06/01 14:26:52;;;;;;;7.72;4.03;;;29.00;51.10;;;;;;6296662;28;20051;-74
2023/06/01 14:29:55;;;;;;;7.75;3.85;;;29.30;49.80;;;;;;6296467;28;20056;-74
2023/06/01 14:32:57;;;;;;;9.52;3.88;;;29.50;49.60;;;;;;6296608;28;20052;-74
2023/06/01 14:35:59;;;;;;;9.18;4.28;;;29.50;49.70;;;;;;6296613;28;20044;-75
2023/06/01 14:39:01;;;;;;;9.10;4.10;;;29.50;49.20;;;;;;6296683;28;20486;-74
2023/06/01 14:42:03;;;;;;;8.15;4.25;;;29.70;49.10;;;;;;6296309;28;20126;-74
2023/06/01 14:45:08;;;;;;;6.67;3.60;;;29.70;47.90;;;;;;6296682;28;20057;-76
2023/06/01 14:48:10;;;;;;;8.15;4.30;;;29.90;46.90;;;;;;6296026;28;20329;-74
2023/06/01 14:51:12;;;;;;;7.15;3.78;;;30.00;48.40;;;;;;6296661;28;20051;-76
2023/06/01 14:54:14;;;;;;;6.93;3.95;;;30.00;48.00;;;;;;6296365;28;20056;-74
2023/06/01 14:57:16;;;;;;;8.37;4.20;;;30.10;48.10;;;;;;6296763;28;20048;-74
2023/06/01 15:00:20;;;;;;;9.73;4.13;;;30.20;48.30;;;;;;6296358;28;20125;-74
2023/06/01 15:03:22;;;;;;;7.75;3.70;;;30.10;47.80;;;;;;6296139;28;20040;-74
2023/06/01 15:06:24;;;;;;;7.33;3.70;;;30.20;48.90;;;;;;6296184;28;20569;-75
2023/06/01 15:09:26;;;;;;;9.30;3.95;;;30.20;47.80;;;;;;6299087;28;20053;-74
2023/06/01 15:12:28;;;;;;;5.53;3.45;;;29.90;48.80;;;;;;6300846;28;20059;-75
2023/06/01 15:15:31;;;;;;;6.30;4.15;;;30.10;49.30;;;;;;6300684;28;20049;-74
2023/06/01 15:18:33;;;;;;;8.88;3.50;;;30.30;48.40;;;;;;6300695;28;20048;-74
2023/06/01 15:21:35;;;;;;;7.37;3.67;;;30.50;48.10;;;;;;6300502;28;20056;-72
2023/06/01 15:24:37;;;;;;;5.78;3.70;;;30.40;47.00;;;;;;6300447;28;20056;-75
2023/06/01 15:27:39;;;;;;;5.80;3.97;;;30.40;46.50;;;;;;6300447;28;20044;-75
2023/06/01 15:30:43;;;;;;;5.65;3.42;;;30.50;47.00;;;;;;6300305;28;20051;-73
2023/06/01 15:33:44;;;;;;;6.10;3.80;;;30.70;47.00;;;;;;6300340;28;20051;-73
2023/06/01 15:36:46;;;;;;;6.43;3.73;;;30.80;45.70;;;;;;6299923;28;20048;-75
2023/06/01 15:39:48;;;;;;;7.90;3.67;;;30.60;46.20;;;;;;6300060;28;20048;-73
2023/06/01 15:42:50;;;;;;;8.65;4.53;;;30.40;47.70;;;;;;6299867;28;20048;-74
2023/06/01 15:45:53;;;;;;;7.17;3.80;;;30.80;45.90;;;;;;6300046;28;20061;-75
2023/06/01 15:48:55;;;;;;;9.57;3.67;;;31.00;46.50;;;;;;6299526;28;20052;-74
2023/06/01 15:51:58;;;;;;;7.20;3.73;;;31.10;46.90;;;;;;6299744;28;20049;-76
2023/06/01 15:55:00;;;;;;;6.03;3.45;;;31.30;44.90;;;;;;6299621;28;20055;-74
2023/06/01 15:58:02;;;;;;;8.63;3.40;;;31.40;45.30;;;;;;6299673;28;20422;-75